Time;durP1;ratioP1;P1;durP2;ratioP2;P2;SDS_P1;SDS_P2;PMS_P1;PMS_P2;Temp;Humidity;BMP_temperature;BMP_pressure;BME280_temperature;BME280_humidity;BME280_pressure;Samples;Min_cycle;Max_cycle;Signal;HPM_P1;HPM_P2
2021/08/02 00:02:29;;;;;;;35.55;16.57;;;;;;;20.76;100.00;100532.30;1575282;89;21422;-76
2021/08/02 00:05:00;;;;;;;33.50;17.87;;;;;;;20.71;100.00;100529.20;1610075;89;21132;-76
2021/08/02 00:07:29;;;;;;;39.38;18.50;;;;;;;20.70;100.00;100527.58;1508898;94;21556;-76
2021/08/02 00:09:59;;;;;;;32.93;17.40;;;;;;;20.72;100.00;100534.91;1547668;92;21105;-76
2021/08/02 00:12:28;;;;;;;35.23;16.93;;;;;;;20.74;100.00;100529.91;1511362;94;21367;-75
2021/08/02 00:14:58;;;;;;;33.38;16.93;;;;;;;20.75;100.00;100530.14;1573667;91;21070;-76
2021/08/02 00:17:25;;;;;;;24.37;14.58;;;;;;;20.76;100.00;100537.20;1575727;91;21197;-75
2021/08/02 00:19:53;;;;;;;36.48;15.50;;;;;;;20.73;100.00;100528.28;1575912;91;21291;-76
2021/08/02 00:22:19;;;;;;;39.20;16.85;;;;;;;20.64;100.00;100532.43;1576155;91;21054;-76
2021/08/02 00:24:45;;;;;;;34.25;17.67;;;;;;;20.56;100.00;100533.30;1575985;91;21889;-76
2021/08/02 00:27:14;;;;;;;31.80;17.55;;;;;;;20.48;100.00;100529.19;1576113;91;20975;-76
2021/08/02 00:29:41;;;;;;;35.17;18.73;;;;;;;20.45;100.00;100532.02;1576055;91;21752;-75
2021/08/02 00:32:07;;;;;;;33.88;18.32;;;;;;;20.43;100.00;100532.90;1614532;86;21039;-76
2021/08/02 00:34:33;;;;;;;37.08;18.62;;;;;;;20.45;100.00;100534.75;1628519;88;21046;-76
2021/08/02 00:37:06;;;;;;;37.95;19.52;;;;;;;20.43;100.00;100525.48;1606878;88;21070;-75
2021/08/02 00:39:40;;;;;;;35.85;16.77;;;;;;;20.42;100.00;100526.62;1649068;84;21720;-76
2021/08/02 00:42:46;;;;;;;34.70;16.52;;;;;;;20.36;100.00;100518.92;1689088;84;21094;-75
2021/08/02 00:45:25;;;;;;;34.55;17.27;;;;;;;20.31;100.00;100524.00;1688829;85;21050;-76
2021/08/02 00:48:05;;;;;;;28.92;15.93;;;;;;;20.27;100.00;100529.10;1688840;85;21059;-76
2021/08/02 00:50:35;;;;;;;27.48;14.33;;;;;;;20.19;100.00;100526.05;1688943;85;21100;-75
2021/08/02 00:53:10;;;;;;;33.88;18.40;;;;;;;20.17;100.00;100524.77;1688977;85;21006;-76
2021/08/02 00:55:41;;;;;;;37.00;18.37;;;;;;;20.20;100.00;100527.64;1689098;85;21057;-75
2021/08/02 00:58:11;;;;;;;35.23;18.10;;;;;;;20.23;100.00;100527.56;1688607;85;21074;-76
2021/08/02 01:00:39;;;;;;;27.13;15.65;;;;;;;20.24;100.00;100534.66;1689060;85;21011;-76
2021/08/02 01:03:08;;;;;;;31.45;15.53;;;;;;;20.19;100.00;100527.98;1689002;85;21178;-77
2021/08/02 01:05:37;;;;;;;27.52;15.20;;;;;;;20.11;100.00;100526.06;1729044;83;20923;-76
2021/08/02 01:08:13;;;;;;;32.93;15.90;;;;;;;20.11;100.00;100528.23;1761829;81;21530;-77
2021/08/02 01:10:49;;;;;;;35.73;18.35;;;;;;;20.09;100.00;100525.58;1757016;81;21015;-76
2021/08/02 01:13:17;;;;;;;33.20;18.15;;;;;;;20.13;100.00;100528.72;1757093;81;21007;-75
2021/08/02 01:15:52;;;;;;;31.42;15.18;;;;;;;20.09;100.00;100531.88;1758987;81;21125;-77
2021/08/02 01:18:22;;;;;;;32.67;16.48;;;;;;;20.04;100.00;100540.83;1758690;81;21265;-76
2021/08/02 01:20:52;;;;;;;29.82;14.98;;;;;;;19.99;100.00;100544.52;1759244;81;21447;-76
2021/08/02 01:23:20;;;;;;;27.05;14.43;;;;;;;19.98;100.00;100549.77;1695248;84;21148;-76
2021/08/02 01:25:57;;;;;;;28.95;15.45;;;;;;;19.95;100.00;100559.42;1695320;84;21081;-76
2021/08/02 01:28:29;;;;;;;35.43;16.15;;;;;;;19.94;100.00;100565.20;1694977;84;21297;-75
2021/08/02 01:31:01;;;;;;;31.80;15.63;;;;;;;19.92;100.00;100569.64;1695473;84;21020;-77
2021/08/02 01:33:32;;;;;;;31.40;16.60;;;;;;;19.90;100.00;100572.45;1695061;84;21091;-77
2021/08/02 01:36:05;;;;;;;32.58;15.63;;;;;;;19.91;100.00;100574.05;1695415;83;21005;-76
2021/08/02 01:38:34;;;;;;;27.50;16.12;;;;;;;19.89;100.00;100582.59;1701337;83;20962;-76
2021/08/02 01:41:03;;;;;;;32.88;16.48;;;;;;;19.86;100.00;100585.97;1711511;83;21975;-76
2021/08/02 01:43:28;;;;;;;30.32;15.60;;;;;;;19.82;100.00;100586.36;1711340;83;20945;-76
2021/08/02 01:46:15;;;;;;;31.87;18.15;;;;;;;19.83;100.00;100582.52;1711645;83;20901;-73
2021/08/02 01:49:06;;;;;;;38.23;18.30;;;;;;;19.86;100.00;100587.34;1708304;83;21028;-76
2021/08/02 01:51:43;;;;;;;36.70;17.27;;;;;;;19.86;100.00;100585.97;1711433;83;21092;-77
2021/08/02 01:54:28;;;;;;;32.78;16.97;;;;;;;19.85;100.00;100590.38;1557476;90;21335;-77
2021/08/02 01:57:18;;;;;;;34.90;17.82;;;;;;;19.84;100.00;100590.16;1557563;91;21163;-76
2021/08/02 02:00:08;;;;;;;42.30;17.25;;;;;;;19.82;100.00;100590.46;1522568;93;21167;-76
2021/08/02 02:02:36;;;;;;;38.30;16.37;;;;;;;19.80;100.00;100587.84;1490129;94;22236;-74
2021/08/02 02:05:18;;;;;;;32.58;17.82;;;;;;;19.80;100.00;100590.56;1507860;94;21007;-76
2021/08/02 02:07:51;;;;;;;28.57;16.48;;;;;;;19.78;100.00;100584.61;1507793;95;21143;-76
2021/08/02 02:10:22;;;;;;;29.90;17.57;;;;;;;19.77;100.00;100586.55;1507734;95;21135;-77
2021/08/02 02:12:50;;;;;;;32.75;17.67;;;;;;;19.78;100.00;100595.55;1507879;94;21091;-75
2021/08/02 02:15:17;;;;;;;30.48;17.52;;;;;;;19.80;100.00;100594.67;1507854;95;21209;-77
2021/08/02 02:17:45;;;;;;;32.08;18.23;;;;;;;19.81;100.00;100590.23;1507847;95;21052;-82
2021/08/02 02:20:13;;;;;;;36.40;17.80;;;;;;;19.86;100.00;100591.44;1507840;95;21957;-76
2021/08/02 02:22:41;;;;;;;34.00;17.65;;;;;;;19.86;100.00;100586.55;1507703;95;21082;-76
2021/08/02 02:25:10;;;;;;;29.60;17.15;;;;;;;19.84;100.00;100590.95;1507948;95;21112;-76
2021/08/02 02:27:37;;;;;;;36.75;16.25;;;;;;;19.84;100.00;100586.05;1515105;93;21134;-76
2021/08/02 02:30:05;;;;;;;28.80;16.65;;;;;;;19.86;100.00;100591.44;1534838;92;21122;-78
2021/08/02 02:32:34;;;;;;;32.75;17.25;;;;;;;19.87;100.00;100594.41;1516397;94;21306;-76
2021/08/02 02:35:02;;;;;;;37.90;17.17;;;;;;;19.90;100.00;100593.77;1534783;92;21161;-76
2021/08/02 02:37:30;;;;;;;39.98;17.52;;;;;;;19.94;100.00;100596.66;1531392;91;21064;-76
2021/08/02 02:39:56;;;;;;;37.35;19.02;;;;;;;19.96;100.00;100594.41;1541896;92;21041;-76
2021/08/02 02:42:23;;;;;;;32.53;18.45;;;;;;;19.99;100.00;100595.70;1561447;91;21106;-76
2021/08/02 02:44:51;;;;;;;34.78;17.25;;;;;;;20.01;100.00;100590.72;1555038;92;21140;-77
2021/08/02 02:47:17;;;;;;;37.90;17.98;;;;;;;20.00;100.00;100597.30;1550443;92;21071;-77
2021/08/02 02:49:45;;;;;;;33.80;17.85;;;;;;;20.01;100.00;100594.82;1555004;92;21119;-77
2021/08/02 02:52:12;;;;;;;39.18;18.98;;;;;;;20.07;100.00;100588.05;1708352;83;21018;-76
2021/08/02 02:54:40;;;;;;;38.65;18.90;;;;;;;20.08;100.00;100584.98;1710572;83;21050;-76
2021/08/02 02:57:06;;;;;;;44.00;17.77;;;;;;;20.03;100.00;100579.70;1710751;83;21562;-76
2021/08/02 02:59:32;;;;;;;35.23;18.15;;;;;;;20.11;100.00;100582.16;1710303;83;20980;-76
2021/08/02 03:02:01;;;;;;;34.05;18.07;;;;;;;20.20;100.00;100575.53;1710491;83;21165;-76
2021/08/02 03:04:31;;;;;;;44.20;19.67;;;;;;;20.25;100.00;100581.41;1710596;83;21055;-76
2021/08/02 03:06:59;;;;;;;34.25;17.65;;;;;;;20.27;100.00;100583.84;1710496;83;21566;-76
2021/08/02 03:09:31;;;;;;;35.43;18.17;;;;;;;20.31;100.00;100593.80;1710475;83;21885;-75
2021/08/02 03:11:57;;;;;;;42.30;19.05;;;;;;;20.49;100.00;100600.59;1708817;83;21034;-77
2021/08/02 03:14:23;;;;;;;38.38;18.37;;;;;;;20.64;100.00;100602.26;1710663;83;21675;-75
2021/08/02 03:16:49;;;;;;;34.03;18.35;;;;;;;20.79;100.00;100598.75;1710873;83;21502;-76
2021/08/02 03:19:15;;;;;;;43.38;19.07;;;;;;;20.95;100.00;100593.54;1710777;83;20880;-76
2021/08/02 03:21:41;;;;;;;47.35;19.30;;;;;;;21.05;100.00;100597.27;1710727;83;21542;-77
2021/08/02 03:24:31;;;;;;;34.95;19.48;;;;;;;21.16;100.00;100591.65;1710749;83;21507;-76
2021/08/02 03:27:08;;;;;;;34.48;18.57;;;;;;;21.20;100.00;100595.32;1710913;83;21098;-76
2021/08/02 03:29:39;;;;;;;40.75;19.25;;;;;;;21.36;100.00;100592.86;1704457;83;21083;-76
2021/08/02 03:32:12;;;;;;;41.95;18.98;;;;;;;21.61;100.00;100583.39;1606220;88;21136;-75
2021/08/02 03:34:39;;;;;;;41.85;18.95;;;;;;;21.79;100.00;100588.97;1606488;88;21077;-76
2021/08/02 03:37:12;;;;;;;34.13;18.77;;;;;;;22.02;100.00;100588.63;1606357;88;21022;-74
2021/08/02 03:39:40;;;;;;;33.40;17.62;;;;;;;22.20;100.00;100597.73;1616886;86;26590;-76
2021/08/02 03:42:07;;;;;;;38.40;19.75;;;;;;;22.59;100.00;100587.88;1667517;86;21501;-76
2021/08/02 03:44:34;;;;;;;37.30;19.02;;;;;;;22.92;100.00;100588.39;1667358;86;21538;-74
2021/08/02 03:47:02;;;;;;;36.00;18.40;;;;;;;23.38;100.00;100580.22;1667233;86;21108;-76
2021/08/02 03:49:29;;;;;;;33.60;19.10;;;;;;;23.95;100.00;100580.55;1667362;86;21097;-75
2021/08/02 03:51:59;;;;;;;30.00;17.00;;;;;;;24.65;100.00;100587.54;1644689;86;21022;-76
2021/08/02 03:54:28;;;;;;;34.33;18.50;;;;;;;25.37;100.00;100585.32;1667535;86;21522;-76
2021/08/02 03:56:55;;;;;;;30.45;18.07;;;;;;;26.04;100.00;100576.08;1667537;86;21162;-76
2021/08/02 03:59:23;;;;;;;37.42;19.23;;;;;;;26.39;100.00;100569.63;1667043;86;21176;-82
2021/08/02 04:01:49;;;;;;;31.27;17.42;;;;;;;26.77;100.00;100566.50;1667224;86;21034;-76
2021/08/02 04:04:15;;;;;;;31.12;18.70;;;;;;;27.14;100.00;100566.09;1667548;86;20974;-76
2021/08/02 04:06:41;;;;;;;34.80;17.40;;;;;;;27.59;100.00;100562.17;1642372;86;20902;-76
2021/08/02 04:09:11;;;;;;;35.60;18.73;;;;;;;27.84;100.00;100560.53;1667399;86;21054;-76
2021/08/02 04:11:42;;;;;;;31.75;18.42;;;;;;;28.32;100.00;100557.06;1667243;86;21917;-76
2021/08/02 04:14:09;;;;;;;33.10;19.17;;;;;;;28.67;100.00;100555.81;1667486;86;21058;-76
2021/08/02 04:16:36;;;;;;;32.80;18.75;;;;;;;29.05;100.00;100560.68;1667588;86;21018;-76
2021/08/02 04:19:02;;;;;;;34.33;19.73;;;;;;;29.74;100.00;100562.63;1667447;86;21550;-77
2021/08/02 04:21:28;;;;;;;29.48;18.48;;;;;;;30.32;100.00;100563.78;1667346;86;21077;-76
2021/08/02 04:23:54;;;;;;;29.48;19.48;;;;;;;30.95;100.00;100562.83;1667475;86;21171;-76
2021/08/02 04:26:21;;;;;;;35.58;20.05;;;;;;;31.47;100.00;100560.91;1667275;86;21064;-77
2021/08/02 04:28:49;;;;;;;30.00;19.05;;;;;;;31.96;100.00;100566.09;1708962;81;20986;-76
2021/08/02 04:31:15;;;;;;;31.15;19.25;;;;;;;32.47;100.00;100563.77;1761013;81;20998;-76
2021/08/02 04:33:41;;;;;;;32.17;19.25;;;;;;;32.93;100.00;100565.37;1769996;80;21631;-76
2021/08/02 04:36:07;;;;;;;28.38;18.60;;;;;;;33.57;97.52;100566.72;1762896;80;21156;-77
2021/08/02 04:38:33;;;;;;;31.02;20.20;;;;;;;34.23;88.73;100573.19;1764975;80;20994;-76
2021/08/02 04:40:59;;;;;;;28.67;19.75;;;;;;;34.78;81.70;100567.72;1753105;81;20919;-77
2021/08/02 04:43:26;;;;;;;28.80;18.73;;;;;;;35.03;78.38;100573.47;1746186;81;21496;-76
2021/08/02 04:45:52;;;;;;;37.58;20.88;;;;;;;35.14;71.61;100564.90;1753719;81;21049;-74
2021/08/02 04:48:18;;;;;;;29.95;19.10;;;;;;;35.23;68.57;100563.72;1747613;81;21183;-77
2021/08/02 04:50:45;;;;;;;29.07;18.90;;;;;;;35.35;63.78;100562.28;1750264;80;21040;-77
2021/08/02 04:53:12;;;;;;;30.30;19.75;;;;;;;35.55;65.71;100560.29;1746109;81;21012;-77
2021/08/02 04:55:39;;;;;;;30.75;19.62;;;;;;;36.00;66.08;100560.31;1753967;80;20987;-74
2021/08/02 04:58:05;;;;;;;30.52;18.90;;;;;;;36.50;63.63;100566.16;1748449;80;21085;-77
2021/08/02 05:00:32;;;;;;;29.90;19.00;;;;;;;36.86;59.58;100575.91;1750260;80;21984;-76
2021/08/02 05:03:00;;;;;;;30.12;19.55;;;;;;;37.12;57.19;100565.56;1747906;80;21086;-77
2021/08/02 05:05:27;;;;;;;29.32;18.20;;;;;;;37.42;54.23;100569.17;1742884;81;21051;-78
2021/08/02 05:07:53;;;;;;;29.65;20.45;;;;;;;37.67;54.21;100570.64;1718744;82;21064;-77
2021/08/02 05:10:20;;;;;;;36.55;20.43;;;;;;;38.11;52.33;100572.33;1727640;82;21749;-78
2021/08/02 05:12:46;;;;;;;30.60;20.48;;;;;;;38.70;50.00;100564.38;1721882;82;21130;-77
2021/08/02 05:15:13;;;;;;;32.03;19.45;;;;;;;39.01;48.78;100560.92;1711709;82;20880;-76
2021/08/02 05:17:39;;;;;;;27.48;19.77;;;;;;;39.28;47.12;100560.33;1716415;82;21032;-77
2021/08/02 05:20:07;;;;;;;31.57;20.82;;;;;;;39.32;46.86;100562.41;1715431;82;21082;-77
2021/08/02 05:22:34;;;;;;;34.75;19.30;;;;;;;39.74;46.82;100555.80;1714989;82;21048;-77
2021/08/02 05:25:01;;;;;;;32.23;18.55;;;;;;;39.91;45.33;100557.73;1711251;82;21106;-77
2021/08/02 05:27:27;;;;;;;25.85;18.05;;;;;;;40.27;44.23;100559.77;1715305;82;21504;-77
2021/08/02 05:29:53;;;;;;;28.55;19.40;;;;;;;40.42;44.16;100559.35;1717102;82;21102;-77
2021/08/02 05:32:19;;;;;;;26.57;18.37;;;;;;;40.78;43.26;100555.80;1716197;82;21063;-76
2021/08/02 05:34:45;;;;;;;35.03;19.67;;;;;;;41.37;40.93;100556.25;1714451;82;21016;-77
2021/08/02 05:37:13;;;;;;;28.83;18.77;;;;;;;41.79;38.91;100554.88;1718705;82;21079;-78
2021/08/02 05:39:40;;;;;;;26.70;19.35;;;;;;;41.76;39.19;100551.58;1713071;82;21023;-77
2021/08/02 05:42:08;;;;;;;32.67;19.90;;;;;;;41.69;38.46;100548.47;1727225;82;21064;-77
2021/08/02 05:44:34;;;;;;;28.15;19.15;;;;;;;41.84;39.23;100552.81;1733594;82;21013;-77
2021/08/02 05:47:00;;;;;;;33.23;19.10;;;;;;;42.26;38.67;100554.83;1709372;82;21015;-76
2021/08/02 05:49:26;;;;;;;25.72;18.27;;;;;;;42.77;37.86;100558.16;1725048;82;21588;-77
2021/08/02 05:51:56;;;;;;;25.27;18.07;;;;;;;43.12;36.36;100557.50;1710307;82;20878;-77
2021/08/02 05:54:20;;;;;;;23.85;18.12;;;;;;;43.23;35.42;100556.33;1676986;84;21052;-77
2021/08/02 05:56:46;;;;;;;29.32;18.25;;;;;;;43.50;35.57;100555.87;1704400;84;20882;-76
2021/08/02 05:59:12;;;;;;;34.15;18.95;;;;;;;43.83;34.33;100554.88;1704107;84;21052;-76
2021/08/02 06:01:37;;;;;;;30.60;19.17;;;;;;;44.08;33.13;100550.64;1700312;84;21014;-77
2021/08/02 06:04:04;;;;;;;25.55;18.45;;;;;;;43.82;32.94;100554.75;1708198;82;21644;-77
2021/08/02 06:06:30;;;;;;;28.70;18.32;;;;;;;43.98;34.67;100550.78;1742579;82;21482;-77
2021/08/02 06:08:56;;;;;;;29.32;18.55;;;;;;;44.65;33.00;100545.84;1742829;82;20824;-75
2021/08/02 06:11:21;;;;;;;29.32;17.65;;;;;;;45.15;33.58;100554.84;1742923;82;21041;-77
2021/08/02 06:13:48;;;;;;;28.40;17.50;;;;;;;45.66;31.48;100554.03;1742845;81;22029;-77
2021/08/02 06:16:20;;;;;;;25.05;16.15;;;;;;;46.06;30.79;100561.43;1742478;82;21472;-84
2021/08/02 06:18:43;;;;;;;22.62;16.80;;;;;;;46.42;30.54;100546.37;1740726;82;21053;-84
2021/08/02 06:21:09;;;;;;;20.55;15.55;;;;;;;47.01;30.05;100542.54;1742709;82;20951;-84
2021/08/02 06:23:35;;;;;;;21.02;16.30;;;;;;;47.30;28.43;100541.27;1743096;81;20865;-83
2021/08/02 06:26:01;;;;;;;26.20;16.37;;;;;;;47.23;28.39;100538.95;1743026;82;21084;-81
2021/08/02 06:28:27;;;;;;;26.00;16.45;;;;;;;47.53;28.07;100537.80;1742773;82;21028;-81
2021/08/02 06:30:53;;;;;;;20.62;15.55;;;;;;;47.87;28.14;100538.56;1742707;82;20940;-81
2021/08/02 06:33:20;;;;;;;21.52;15.72;;;;;;;48.01;27.34;100543.86;1742528;82;20877;-81
2021/08/02 06:35:46;;;;;;;22.20;16.32;;;;;;;47.97;26.45;100541.25;1742470;81;21134;-81
2021/08/02 06:38:11;;;;;;;20.68;16.37;;;;;;;48.15;26.66;100549.16;1730202;82;21966;-82
2021/08/02 06:40:37;;;;;;;21.60;16.73;;;;;;;48.19;27.41;100550.45;1744844;82;20956;-82
2021/08/02 06:43:03;;;;;;;27.95;17.48;;;;;;;48.16;26.96;100547.21;1777657;80;20958;-82
2021/08/02 06:45:29;;;;;;;23.05;18.67;;;;;;;48.45;27.35;100547.88;1753192;81;20845;-82
2021/08/02 06:47:56;;;;;;;21.93;17.90;;;;;;;48.89;26.61;100541.19;1777646;80;20891;-82
2021/08/02 06:50:24;;;;;;;21.87;17.10;;;;;;;49.05;26.24;100535.20;1752717;81;21182;-82
2021/08/02 06:52:52;;;;;;;24.65;17.40;;;;;;;49.16;26.06;100535.02;1777471;80;20943;-81
2021/08/02 06:55:18;;;;;;;23.67;18.00;;;;;;;49.49;25.65;100533.30;1752968;81;21039;-81
2021/08/02 06:57:45;;;;;;;20.97;16.97;;;;;;;49.59;25.16;100534.41;1777342;80;21029;-81
2021/08/02 07:00:11;;;;;;;21.60;17.35;;;;;;;49.81;25.11;100527.03;1733693;81;21345;-82
2021/08/02 07:02:37;;;;;;;16.57;14.50;;;;;;;50.15;24.92;100533.16;1777830;80;21199;-82
2021/08/02 07:05:04;;;;;;;18.20;15.98;;;;;;;50.12;23.87;100528.50;1753251;81;21579;-81
2021/08/02 07:07:30;;;;;;;20.27;16.65;;;;;;;50.36;24.12;100524.06;1767193;80;21523;-83
2021/08/02 07:09:56;;;;;;;16.80;15.00;;;;;;;50.38;23.72;100532.24;1730796;83;20880;-85
2021/08/02 07:12:21;;;;;;;20.10;14.93;;;;;;;50.58;23.84;100528.06;1730746;83;21633;-84
2021/08/02 07:14:47;;;;;;;17.17;14.33;;;;;;;50.76;22.67;100530.06;1729683;83;21171;-84
2021/08/02 07:17:13;;;;;;;16.20;13.53;;;;;;;50.75;22.16;100524.22;1730775;83;21389;-84
2021/08/02 07:19:39;;;;;;;12.63;11.40;;;;;;;50.75;21.30;100523.55;1730948;82;21717;-84
2021/08/02 07:22:06;;;;;;;11.53;10.38;;;;;;;50.83;21.28;100519.38;1730889;83;20996;-84
2021/08/02 07:24:32;;;;;;;18.95;11.18;;;;;;;51.20;21.22;100516.34;1730919;83;21008;-84
2021/08/02 07:26:58;;;;;;;11.20;10.08;;;;;;;51.45;19.89;100519.19;1730934;82;21162;-84
2021/08/02 07:29:24;;;;;;;12.95;10.60;;;;;;;51.42;19.74;100519.49;1730816;83;20923;-84
2021/08/02 07:31:50;;;;;;;14.13;11.68;;;;;;;51.61;19.36;100520.86;1712323;83;20967;-84
2021/08/02 07:34:16;;;;;;;15.72;11.85;;;;;;;51.47;19.60;100522.94;1730774;83;20971;-83
2021/08/02 07:36:42;;;;;;;16.55;12.98;;;;;;;51.66;19.93;100517.91;1730656;81;21074;-85
2021/08/02 07:39:08;;;;;;;18.55;13.83;;;;;;;51.65;19.12;100518.45;1733955;81;21075;-83
2021/08/02 07:41:34;;;;;;;13.13;11.93;;;;;;;51.74;19.32;100511.59;1775255;80;21447;-83
2021/08/02 07:44:00;;;;;;;14.53;11.83;;;;;;;51.78;19.20;100520.67;1772718;80;20963;-83
2021/08/02 07:46:26;;;;;;;16.32;12.23;;;;;;;51.69;19.08;100518.91;1743314;80;20845;-86
2021/08/02 07:48:52;;;;;;;15.95;12.98;;;;;;;51.76;18.99;100511.82;1753064;80;21018;-85
2021/08/02 07:51:20;;;;;;;16.65;12.95;;;;;;;51.95;19.32;100515.23;1755938;80;21085;-83
2021/08/02 07:53:46;;;;;;;14.78;13.32;;;;;;;51.88;19.10;100510.94;1753464;81;20991;-83
2021/08/02 07:56:12;;;;;;;13.85;12.45;;;;;;;51.80;18.99;100510.05;1774660;80;21034;-83
2021/08/02 07:58:38;;;;;;;13.72;12.33;;;;;;;52.07;18.86;100517.24;1784306;80;20903;-83
2021/08/02 08:01:04;;;;;;;17.30;13.45;;;;;;;51.97;18.99;100513.36;1784576;80;20931;-82
2021/08/02 08:03:30;;;;;;;14.03;12.63;;;;;;;51.90;18.90;100504.64;1784477;80;21152;-81
2021/08/02 08:05:56;;;;;;;12.23;10.75;;;;;;;52.04;19.53;100513.40;1784902;80;21066;-81
2021/08/02 08:08:22;;;;;;;14.63;12.43;;;;;;;52.02;18.80;100508.86;1784424;80;21551;-82
2021/08/02 08:10:49;;;;;;;15.80;12.90;;;;;;;51.96;19.00;100514.70;1784188;80;20968;-83
2021/08/02 08:13:15;;;;;;;13.70;12.40;;;;;;;51.50;18.69;100509.67;1784532;80;20995;-83
2021/08/02 08:15:42;;;;;;;17.17;12.98;;;;;;;51.43;19.52;100500.95;1768175;80;21102;-83
2021/08/02 08:18:08;;;;;;;21.62;12.25;;;;;;;51.62;19.54;100504.48;1753334;81;21472;-83
2021/08/02 08:20:34;;;;;;;17.02;12.63;;;;;;;51.81;19.29;100501.55;1773151;79;20887;-84
2021/08/02 08:23:00;;;;;;;13.43;11.55;;;;;;;52.08;19.61;100502.99;1772730;80;21416;-84
2021/08/02 08:25:26;;;;;;;16.37;12.13;;;;;;;52.04;19.10;100506.21;1740610;81;21535;-84
2021/08/02 08:27:52;;;;;;;17.73;12.13;;;;;;;51.86;19.13;100497.77;1762579;80;21102;-85
2021/08/02 08:30:21;;;;;;;13.70;10.43;;;;;;;51.86;18.90;100497.00;1753531;81;21028;-85
2021/08/02 08:32:47;;;;;;;12.70;11.18;;;;;;;51.62;19.06;100494.42;1753495;81;21078;-83
2021/08/02 08:35:14;;;;;;;13.95;10.45;;;;;;;51.59;19.69;100491.22;1753604;81;21002;-83
2021/08/02 08:37:40;;;;;;;15.43;11.95;;;;;;;51.51;19.32;100495.44;1753424;81;21038;-85
2021/08/02 08:40:09;;;;;;;18.67;10.78;;;;;;;51.52;18.59;100496.97;1753534;81;21112;-83
2021/08/02 08:42:35;;;;;;;9.93;8.90;;;;;;;51.07;18.55;100490.57;1745185;81;21098;-81
2021/08/02 08:45:01;;;;;;;14.28;9.75;;;;;;;50.48;18.99;100500.30;1743056;82;22144;-84
2021/08/02 08:47:27;;;;;;;12.98;8.85;;;;;;;49.83;19.22;100495.72;1739640;82;20880;-84
2021/08/02 08:49:53;;;;;;;18.40;8.95;;;;;;;48.81;19.68;100492.17;1743575;82;20968;-85
2021/08/02 08:52:19;;;;;;;13.68;8.40;;;;;;;47.95;20.31;100493.86;1743106;82;21136;-83
2021/08/02 08:54:45;;;;;;;12.68;8.15;;;;;;;47.10;21.44;100496.66;1742968;82;21011;-84
2021/08/02 08:57:14;;;;;;;11.48;8.08;;;;;;;46.38;22.15;100498.00;1742788;82;21736;-82
2021/08/02 08:59:52;;;;;;;11.65;7.80;;;;;;;45.93;22.85;100500.63;1742938;82;20975;-84
2021/08/02 09:02:26;;;;;;;16.27;7.87;;;;;;;45.83;24.03;100493.53;1743299;82;21024;-85
2021/08/02 09:05:00;;;;;;;16.73;8.78;;;;;;;46.11;23.99;100487.36;1743011;82;21678;-84
2021/08/02 09:07:46;;;;;;;10.58;7.60;;;;;;;45.85;23.82;100487.46;1747175;80;20994;-81
2021/08/02 09:10:18;;;;;;;12.68;8.38;;;;;;;45.48;23.56;100485.40;1758176;80;21598;-80
2021/08/02 09:12:57;;;;;;;20.08;7.85;;;;;;;45.06;23.78;100488.89;1746817;81;21582;-81
2021/08/02 09:15:37;;;;;;;12.63;8.25;;;;;;;44.52;24.40;100485.09;1749053;80;21039;-81
2021/08/02 09:18:08;;;;;;;13.88;8.25;;;;;;;43.84;24.72;100479.14;1750614;81;21215;-82
2021/08/02 09:20:34;;;;;;;;;;;;;;;43.49;26.24;100479.11;1750550;80;21000;-81
2021/08/02 09:23:15;;;;;;;14.90;8.23;;;;;;;43.66;26.91;100474.50;1743718;82;20731;-81
2021/08/02 09:25:51;;;;;;;17.00;8.25;;;;;;;44.16;27.90;100469.40;1746618;81;21047;-82
2021/08/02 09:28:21;;;;;;;13.90;7.90;;;;;;;45.25;24.85;100461.67;1743966;82;21491;-82
2021/08/02 09:31:02;;;;;;;18.50;8.37;;;;;;;45.84;23.93;100446.03;1743242;82;21086;-82
2021/08/02 09:33:44;;;;;;;10.98;8.08;;;;;;;45.91;23.50;100454.76;1742819;82;21126;-82
2021/08/02 09:36:11;;;;;;;14.20;8.48;;;;;;;46.32;23.74;100450.93;1752449;81;21492;-83
2021/08/02 09:38:37;;;;;;;16.00;7.87;;;;;;;46.62;22.91;100451.91;1745555;81;21234;-80
2021/08/02 09:41:03;;;;;;;14.83;8.03;;;;;;;46.36;23.83;100452.91;1748203;80;20998;-79
2021/08/02 09:43:31;;;;;;;12.80;8.73;;;;;;;46.55;24.03;100448.92;1747882;80;21694;-78
2021/08/02 09:46:03;;;;;;;15.10;7.60;;;;;;;46.58;23.41;100443.61;1739716;82;20968;-79
2021/08/02 09:48:42;;;;;;;18.37;8.30;;;;;;;46.55;23.21;100446.07;1753377;80;21106;-79
2021/08/02 09:51:17;;;;;;;13.50;7.70;;;;;;;46.42;23.05;100452.27;1771259;80;21005;-83
2021/08/02 09:53:47;;;;;;;15.10;7.55;;;;;;;46.17;22.80;100443.98;1751275;80;21577;-84
2021/08/02 09:56:16;;;;;;;11.70;7.50;;;;;;;45.88;22.96;100451.48;1745038;82;21088;-86
2021/08/02 09:58:45;;;;;;;12.65;8.00;;;;;;;45.44;23.79;100451.32;1744737;82;21572;-87
2021/08/02 10:01:20;;;;;;;12.07;7.20;;;;;;;45.35;24.22;100450.09;1744590;82;21461;-86
2021/08/02 10:03:47;;;;;;;13.53;6.47;;;;;;;45.22;23.85;100449.88;1744798;82;21068;-89
2021/08/02 10:06:15;;;;;;;12.47;6.50;;;;;;;44.98;22.87;100442.25;1744814;82;21043;-90
2021/08/02 10:08:42;;;;;;;14.13;5.95;;;;;;;44.87;22.80;100434.42;1744912;82;21276;-89
2021/08/02 10:11:09;;;;;;;16.25;6.45;;;;;;;44.62;22.68;100432.47;1765976;80;21076;-90
2021/08/02 10:13:40;;;;;;;15.13;6.67;;;;;;;44.37;23.21;100434.67;1751861;80;21526;-89
2021/08/02 10:16:14;;;;;;;15.85;7.60;;;;;;;44.44;23.76;100429.95;1740846;82;21060;-88
2021/08/02 10:18:40;;;;;;;18.02;6.92;;;;;;;44.33;23.00;100424.95;1739249;82;21050;-89
2021/08/02 10:21:10;;;;;;;14.43;6.90;;;;;;;44.09;23.24;100427.20;1748158;81;21891;-89
2021/08/02 10:23:39;;;;;;;13.15;6.37;;;;;;;43.88;23.27;100430.65;1755788;81;21032;-90
2021/08/02 10:26:29;;;;;;;15.48;7.60;;;;;;;43.79;24.30;100430.14;1759875;80;21028;-91
2021/08/02 10:29:02;;;;;;;14.55;7.42;;;;;;;43.54;24.47;100409.68;1755464;81;21044;-89
2021/08/02 10:31:31;;;;;;;12.47;6.00;;;;;;;43.53;23.84;100421.48;1756355;81;21004;-90
2021/08/02 10:33:57;;;;;;;13.88;6.15;;;;;;;43.53;23.84;100421.48;1756497;81;22074;-90
2021/08/02 10:36:25;;;;;;;11.50;6.70;;;;;;;43.44;23.69;100427.28;1755993;81;21113;-89
2021/08/02 10:39:00;;;;;;;14.70;6.75;;;;;;;43.49;24.25;100430.22;1755631;81;20981;-87
2021/08/02 10:41:30;;;;;;;14.73;6.83;;;;;;;43.62;23.76;100419.19;1742626;82;20996;-86
2021/08/02 10:43:59;;;;;;;21.20;6.80;;;;;;;43.62;23.49;100419.19;1743042;82;21021;-90
2021/08/02 10:46:28;;;;;;;15.65;6.97;;;;;;;43.42;24.33;100419.28;1742949;81;21504;-86
2021/08/02 10:49:08;;;;;;;12.82;6.58;;;;;;;43.41;24.37;100422.59;1743054;82;21090;-88
2021/08/02 10:51:50;;;;;;;13.08;7.40;;;;;;;43.20;24.81;100419.70;1742684;82;20996;-89
2021/08/02 10:54:17;;;;;;;23.05;7.87;;;;;;;43.13;24.76;100428.62;1775162;80;21610;-87
2021/08/02 10:56:51;;;;;;;12.95;7.53;;;;;;;43.17;25.04;100422.11;1775925;80;21532;-89
2021/08/02 10:59:19;;;;;;;12.33;7.50;;;;;;;43.10;25.02;100424.69;1775606;80;21234;-88
2021/08/02 11:01:48;;;;;;;15.20;8.10;;;;;;;43.07;25.71;100412.12;1775494;80;21066;-87
2021/08/02 11:04:17;;;;;;;17.62;7.30;;;;;;;43.04;25.66;100416.72;1767892;80;21502;-87
2021/08/02 11:06:49;;;;;;;14.18;7.35;;;;;;;43.06;25.51;100411.31;1751482;82;21016;-87
2021/08/02 11:09:27;;;;;;;16.23;8.15;;;;;;;42.93;25.69;100404.41;1726449;82;21027;-88
2021/08/02 11:12:11;;;;;;;12.82;7.33;;;;;;;42.82;26.04;100407.83;1749270;82;21344;-87
2021/08/02 11:14:48;;;;;;;15.93;7.92;;;;;;;42.91;26.98;100394.95;1750535;82;21019;-90
2021/08/02 11:17:19;;;;;;;20.60;8.15;;;;;;;43.12;26.16;100394.39;1751210;82;21697;-92
2021/08/02 11:19:45;;;;;;;13.10;7.22;;;;;;;42.81;26.91;100392.87;1750975;82;21018;-89